Aktualne dane pomiarowe

Uwaga, wersja testowa! Automatyczne pobieranie danych za pomocą narzędzi lub skryptów to umożliwiających jest zabronione.

Dane meteo z obszaru Polski uzyskane na podstawie depesz SYNOP pobieranych co godzinę z NWS. Najedź myszką na symbol przedstawiony w tabeli, aby uzyskać informacje co do jego znaczenia. Prosimy pamiętać, że to testowa wersja strony, która jeszcze nie jest ukończona. Stworzono również jest krótki FAQ dotyczący korzystania z tej podstrony Anomalie temperatury w chwili obecnej odniesione są do okresu referencyjnego 1951-2016. Okres ten będzie później zmieniony na 1981-2010. Kliknij ikonę aby pobrać plik CSV. Kliknij ikonę aby wygenerować mapę synoptyczną dla danego terminu.

Wybierz Datę:    

        

Mińsk Mazowiecki (12376)

Dane terminowe dla wybranej stacji. Kliknij datę, aby otrzymać dane z tego terminu dla wszystkich stacji.

TemperaturaZachmurzenieWiatrCiśnienieOpadyPogoda
 Data t td wb tx tn tg rh  Nt Nl Cl Cm Ch ws wd g1 g2 wx mslp ppp ch 24h 12h t ww ww w1 w2  
2019-06-07 23:00:00 15.7 15.5 15.5--- 9910.0wx-3wx---1015.7 994.0 -0.1---------
2019-06-07 22:00:00 16.6 16.0 16.1--- 9610.0wx-1wx---1016.0 994.3 0.4---------
2019-06-07 21:00:00 18.0 16.5 16.9--- 9110.0wx-2wx---1015.6 994.0 0.6---------
2019-06-07 20:00:00 19.2 16.4 17.2--- 8410.0wxwxwxwx1wx---1015.5 994.0 0.7---------
2019-06-07 19:00:00 21.1 16.5 18.0--- 7510.0wxwxwxwx2wx---1015.2 993.9 0.9---------
2019-06-07 18:00:00 24.4 16.2 19.0--- 6010.0wxwxwxwx2wx---1014.5 993.4 0.6---------
2019-06-07 17:00:00 26.0 14.8 18.9--- 5010.0wxwxwxwx2wx---1014.3 993.3 0.4---------
2019-06-07 16:00:00 26.7 14.2 18.8--- 4610.0wxwxwxwx2wx---1013.9 993.0 0.1---------
2019-06-07 15:00:00 26.8 14.9 19.2--- 4810.0wxwxwxwx2wx---1013.7 992.8 -0.5---------
2019-06-07 14:00:00 26.7 13.8 18.6--- 4510.0wxwxwx3wx---1013.9 992.9 -0.8---------
2019-06-07 13:00:00 26.8 14.6 19.1--- 4710.0wxwxwx4wx---1013.8 992.9 -1.0---------
2019-06-07 12:00:00 26.6 16.3 19.9--- 5310.0wxwxwx4wx---1014.2 993.3 -0.5---------
2019-06-07 11:00:00 25.4 16.6 19.6--- 5810.0wxwxwx3wx---1014.7 993.7 0.2---------
2019-06-07 10:00:00 25.1 16.3 19.3--- 5810.0wxwxwx3wx---1015.0 993.9 0.4---------
2019-06-07 09:00:00 24.3 15.5 18.6--- 5810.0wxwxwx4wx-9-1014.9 993.8 0.5---------
2019-06-07 08:00:00 23.2 17.4 19.3--- 7010.0wxwxwxwx4wx---1014.7 993.5 0.2---------
2019-06-07 07:00:00 21.9 17.5 18.9--- 7610.0wx-wx3wx---1014.8 993.5 0.5---------
2019-06-07 06:00:00 19.7 17.5 18.1--- 8710.0wx-wx3wx---1014.7 993.3 0.7---------
2019-06-07 05:00:00 16.7 16.7 16.7--- 10010.0wxwxwx3wx---1014.9 993.3 0.7---------
2019-06-07 04:00:00 15.4 15.4 15.4--- 1008.0wxwxwx4wx---1014.7 993.0 0.5---wx---
2019-06-07 03:00:00 15.0 15.0 15.0--- 10010.0wxwxwx3wx---1014.5 992.7 0.2---------
2019-06-07 02:00:00 13.8 13.8 13.8--- 10010.0wx-3wx---1014.5 992.6 0.4---------
2019-06-07 01:00:00 15.1 15.1 15.1--- 10010.0wx-4wx---1014.3 992.5 0.2---------
2019-06-07 00:00:00 15.3 15.0 15.1--- 9810.0wx-wx3wx---1014.2 992.5 -0.6---------
2019-06-06 23:00:00 17.8 14.9 15.8--- 8310.0wx-wx3wx---1013.8 992.2 -0.6---------
2019-06-06 22:00:00 17.8 15.3 16.0--- 8510.0wx-wx3wx---1013.8 992.3 0.2---------
2019-06-06 21:00:00 19.3 15.1 16.5--- 7710.0wx-wx4wx---1014.5 993.0 1.5---------
2019-06-06 20:00:00 20.3 16.1 17.4--- 7710.0wx-wx3wx---1014.2 992.8 1.1---------
2019-06-06 19:00:00 21.6 17.7 18.9--- 7910.0wxwxwx4wx---1013.4 992.1 0.8---------
2019-06-06 18:00:00 22.0 18.5 19.5--- 8155.0wxwxwxwx3wx---1012.7 991.5 0.0---------
2019-06-06 17:00:00 22.1 19.1 20.0--- 8310.0wxwxwxwx2wx---1012.9 991.7 0.2---------
2019-06-06 16:00:00 24.9 17.6 20.0--- 6410.0wxwxwxwx3wx---1012.3 991.3 -0.5---------
2019-06-06 15:00:00 22.7 19.1 20.1--- 8010.0wxwxwx4wx---1012.5 991.4 -0.7---wx-w1w2--
2019-06-06 14:00:00 26.3 16.0 19.6--- 5310.0wxwxwx4wx---1012.4 991.5 -0.8---------
2019-06-06 13:00:00 26.9 16.8 20.3--- 5410.0wxwxwxwx5wx---1012.7 991.8 -0.9---------
2019-06-06 12:00:00 25.2 16.1 19.3--- 5710.0wxwxwxwx6wx---1013.1 992.1 -0.9---------
2019-06-06 11:00:00 26.3 16.3 19.8--- 5410.0wxwxwxwx6wx---1013.3 992.4 -0.6---------
2019-06-06 10:00:00 24.9 16.9 19.6--- 6110.0wxwxwxwx5wx---1013.8 992.8 -0.3---------
2019-06-06 09:00:00 24.0 16.5 19.0--- 6310.0wxwxwxwx6wx---1014.1 993.0 0.1---------
2019-06-06 08:00:00 23.4 16.9 19.0--- 6710.0wx-wx4wx---1014.2 993.0 0.2---------
2019-06-06 07:00:00 22.1 17.5 18.9--- 7510.0wx-wx4wx---1014.3 993.1 0.3---------
2019-06-06 06:00:00 20.4 16.8 17.9--- 8010.0wx-wx5wx---1014.3 992.9 0.3---------
2019-06-06 05:00:00 18.5 16.3 16.9--- 8710.0wx-wx5wx---1014.3 992.8 0.4---------
2019-06-06 04:00:00 17.5 15.8 16.3--- 9010.0wx-wx5wx---1014.4 992.8 0.5---------
2019-06-06 03:00:00 16.6 15.3 15.7--- 9210.0wx-wx5wx---1014.3 992.6 0.4---------
2019-06-06 02:00:00 17.1 15.3 15.8--- 8910.0wx-wx5wx---1014.0 992.4 0.1---------
2019-06-06 01:00:00 16.6 15.6 15.9--- 9410.0wx-wx5wx---1013.9 992.3 -0.3---------
2019-06-06 00:00:00 16.3 15.2 15.5--- 9310.0wx-4wx---1013.9 992.2 -0.5---------
4.8 ms

 

Print Friendly, PDF & Email